PWSweather.com
Personal Weather Stations
Station Observations
LEONMETEO
LeonES 24008

LeonES 24008

Lat: 42.6055559, Lon: -5.5752249

Elevation: 2690

Station Type: La Crosse WS3600

Latest ConditionsUpdated 7:12:59 AM GMT+01:01 Friday, Jul 1, 2016
Currently Today's Max Today's Min Today's Average
Temperature 59.1°F15.1°C 65.4°F18.6°C 58.6°F14.8°C 61.2°F16.2°C
Dew Point 51.2°F10.7°C 54.2°F12.3°C 50.9°F10.5°C 52.2°F11.2°C
Winds - N16091.8 kmh N Calm Calm - Calm Calm
Wind Gusts -- -- - -
Humidity 75% 76% 67% 72%
Pressure 29.87 in1011.5 mb 29.88 in1011.9 mb 29.86 in1011.2 mb -
Hour Temp Dew Point Humidity Winds Wind Gusts Pressure Precip Precip Rate Daily Precip Total
07:12 AM 59.1°F15.1°C 51.2°F10.7°C 75% - N16091.8 kmh N -- 29.87 in1011.5 mb 0.00 in0.0 mm 0.00 in0.0 mm 0.00 in0.0 mm
07:08 AM 59.1°F15.1°C 51.2°F10.7°C 75% - N16091.8 kmh N -- 29.87 in1011.5 mb 0.00 in0.0 mm 0.00 in0.0 mm 0.00 in0.0 mm
07:03 AM 59.0°F15.0°C 51.4°F10.8°C 75% - N16091.8 kmh N -- 29.87 in1011.5 mb 0.00 in0.0 mm 0.00 in0.0 mm 0.00 in0.0 mm
06:57 AM 59.0°F15.0°C 51.4°F10.8°C 75% - N16091.8 kmh N -- 29.87 in1011.5 mb 0.00 in0.0 mm 0.00 in0.0 mm 0.00 in0.0 mm
06:52 AM 59.0°F15.0°C 51.4°F10.8°C 75% - N16091.8 kmh N -- 29.87 in1011.5 mb 0.00 in0.0 mm 0.00 in0.0 mm 0.00 in0.0 mm
06:47 AM 59.0°F15.0°C 51.4°F10.8°C 75% - N16091.8 kmh N -- 29.87 in1011.5 mb 0.00 in0.0 mm 0.00 in0.0 mm 0.00 in0.0 mm
06:42 AM 59.0°F15.0°C 51.4°F10.8°C 75% - N16091.8 kmh N -- 29.87 in1011.5 mb 0.00 in0.0 mm 0.00 in0.0 mm 0.00 in0.0 mm
06:37 AM 59.0°F15.0°C 51.4°F10.8°C 76% - N16091.8 kmh N -- 29.87 in1011.5 mb 0.00 in0.0 mm 0.00 in0.0 mm 0.00 in0.0 mm
06:32 AM 59.0°F15.0°C 51.4°F10.8°C 76% - N16091.8 kmh N -- 29.87 in1011.5 mb 0.00 in0.0 mm 0.00 in0.0 mm 0.00 in0.0 mm
06:27 AM 58.8°F14.9°C 51.2°F10.7°C 76% - N16091.8 kmh N -- 29.87 in1011.5 mb 0.00 in0.0 mm 0.00 in0.0 mm 0.00 in0.0 mm
06:22 AM 58.8°F14.9°C 51.2°F10.7°C 76% - N16091.8 kmh N -- 29.87 in1011.5 mb 0.00 in0.0 mm 0.00 in0.0 mm 0.00 in0.0 mm
06:17 AM 58.6°F14.8°C 51.0°F10.6°C 76% - N16091.8 kmh N -- 29.87 in1011.5 mb 0.00 in0.0 mm 0.00 in0.0 mm 0.00 in0.0 mm
06:12 AM 58.6°F14.8°C 51.0°F10.6°C 76% - N16091.8 kmh N -- 29.87 in1011.5 mb 0.00 in0.0 mm 0.00 in0.0 mm 0.00 in0.0 mm
06:07 AM 58.8°F14.9°C 50.9°F10.5°C 75% - N16091.8 kmh N -- 29.87 in1011.5 mb 0.00 in0.0 mm 0.00 in0.0 mm 0.00 in0.0 mm
06:02 AM 59.0°F15.0°C 51.0°F10.6°C 75% - N16091.8 kmh N -- 29.87 in1011.5 mb 0.00 in0.0 mm 0.00 in0.0 mm 0.00 in0.0 mm
05:57 AM 59.0°F15.0°C 51.0°F10.6°C 75% - N16091.8 kmh N -- 29.87 in1011.5 mb 0.00 in0.0 mm 0.00 in0.0 mm 0.00 in0.0 mm
05:52 AM 59.0°F15.0°C 51.0°F10.6°C 75% - N16091.8 kmh N -- 29.87 in1011.5 mb 0.00 in0.0 mm 0.00 in0.0 mm 0.00 in0.0 mm
05:47 AM 59.0°F15.0°C 51.0°F10.6°C 75% - N16091.8 kmh N -- 29.87 in1011.5 mb 0.00 in0.0 mm 0.00 in0.0 mm 0.00 in0.0 mm
05:42 AM 59.0°F15.0°C 51.0°F10.6°C 75% - N16091.8 kmh N -- 29.87 in1011.5 mb 0.00 in0.0 mm 0.00 in0.0 mm 0.00 in0.0 mm
05:37 AM 59.0°F15.0°C 51.0°F10.6°C 75% - N16091.8 kmh N -- 29.87 in1011.5 mb 0.00 in0.0 mm 0.00 in0.0 mm 0.00 in0.0 mm
05:32 AM 59.0°F15.0°C 51.0°F10.6°C 75% - N16091.8 kmh N -- 29.87 in1011.5 mb 0.00 in0.0 mm 0.00 in0.0 mm 0.00 in0.0 mm
05:27 AM 59.0°F15.0°C 51.0°F10.6°C 75% - N16091.8 kmh N -- 29.87 in1011.5 mb 0.00 in0.0 mm 0.00 in0.0 mm 0.00 in0.0 mm
05:22 AM 59.0°F15.0°C 51.0°F10.6°C 75% - N16091.8 kmh N -- 29.87 in1011.5 mb 0.00 in0.0 mm 0.00 in0.0 mm 0.00 in0.0 mm
05:17 AM 59.0°F15.0°C 51.0°F10.6°C 75% - N16091.8 kmh N -- 29.86 in1011.2 mb 0.00 in0.0 mm 0.00 in0.0 mm 0.00 in0.0 mm
05:12 AM 59.3°F15.2°C 51.0°F10.6°C 74% - N16091.8 kmh N -- 29.87 in1011.5 mb 0.00 in0.0 mm 0.00 in0.0 mm 0.00 in0.0 mm
05:07 AM 59.5°F15.3°C 51.2°F10.7°C 74% - N16091.8 kmh N -- 29.87 in1011.5 mb 0.00 in0.0 mm 0.00 in0.0 mm 0.00 in0.0 mm
05:02 AM 59.7°F15.4°C 51.4°F10.8°C 74% - N16091.8 kmh N -- 29.87 in1011.5 mb 0.00 in0.0 mm 0.00 in0.0 mm 0.00 in0.0 mm
04:57 AM 59.9°F15.5°C 51.2°F10.7°C 73% - N16091.8 kmh N -- 29.87 in1011.5 mb 0.00 in0.0 mm 0.00 in0.0 mm 0.00 in0.0 mm
04:52 AM 60.0°F15.6°C 51.4°F10.8°C 73% - N16091.8 kmh N -- 29.87 in1011.5 mb 0.00 in0.0 mm 0.00 in0.0 mm 0.00 in0.0 mm
04:47 AM 60.0°F15.6°C 51.4°F10.8°C 73% - N16091.8 kmh N -- 29.86 in1011.2 mb 0.00 in0.0 mm 0.00 in0.0 mm 0.00 in0.0 mm
04:42 AM 60.4°F15.8°C 51.8°F11.0°C 73% - N16091.8 kmh N -- 29.87 in1011.5 mb 0.00 in0.0 mm 0.00 in0.0 mm 0.00 in0.0 mm
04:37 AM 60.4°F15.8°C 51.8°F11.0°C 73% - N16091.8 kmh N -- 29.87 in1011.5 mb 0.00 in0.0 mm 0.00 in0.0 mm 0.00 in0.0 mm
04:32 AM 60.4°F15.8°C 51.8°F11.0°C 73% - N16091.8 kmh N -- 29.87 in1011.5 mb 0.00 in0.0 mm 0.00 in0.0 mm 0.00 in0.0 mm
04:27 AM 60.4°F15.8°C 51.8°F11.0°C 73% - N16091.8 kmh N -- 29.87 in1011.5 mb 0.00 in0.0 mm 0.00 in0.0 mm 0.00 in0.0 mm
04:22 AM 60.6°F15.9°C 51.9°F11.1°C 73% - N16091.8 kmh N -- 29.87 in1011.5 mb 0.00 in0.0 mm 0.00 in0.0 mm 0.00 in0.0 mm
04:17 AM 60.8°F16.0°C 52.1°F11.2°C 73% - N16091.8 kmh N -- 29.87 in1011.5 mb 0.00 in0.0 mm 0.00 in0.0 mm 0.00 in0.0 mm
04:12 AM 60.9°F16.1°C 52.3°F11.3°C 73% - N16091.8 kmh N -- 29.87 in1011.5 mb 0.00 in0.0 mm 0.00 in0.0 mm 0.00 in0.0 mm
04:07 AM 61.1°F16.2°C 52.4°F11.3°C 73% - N16091.8 kmh N -- 29.87 in1011.5 mb 0.00 in0.0 mm 0.00 in0.0 mm 0.00 in0.0 mm
04:02 AM 61.3°F16.3°C 52.2°F11.2°C 73% - N16091.8 kmh N -- 29.87 in1011.5 mb 0.00 in0.0 mm 0.00 in0.0 mm 0.00 in0.0 mm
03:56 AM 61.3°F16.3°C 52.2°F11.2°C 72% - N16091.8 kmh N -- 29.87 in1011.5 mb 0.00 in0.0 mm 0.00 in0.0 mm 0.00 in0.0 mm
03:52 AM 61.3°F16.3°C 52.2°F11.2°C 72% - N16091.8 kmh N -- 29.86 in1011.2 mb 0.00 in0.0 mm 0.00 in0.0 mm 0.00 in0.0 mm
03:47 AM 61.3°F16.3°C 52.2°F11.2°C 72% - N16091.8 kmh N -- 29.87 in1011.5 mb 0.00 in0.0 mm 0.00 in0.0 mm 0.00 in0.0 mm
03:41 AM 61.5°F16.4°C 52.4°F11.3°C 72% - N16091.8 kmh N -- 29.86 in1011.2 mb 0.00 in0.0 mm 0.00 in0.0 mm 0.00 in0.0 mm
03:36 AM 61.7°F16.5°C 52.6°F11.4°C 72% - N16091.8 kmh N -- 29.87 in1011.5 mb 0.00 in0.0 mm 0.00 in0.0 mm 0.00 in0.0 mm
03:31 AM 61.8°F16.6°C 52.7°F11.5°C 72% - N16091.8 kmh N -- 29.87 in1011.5 mb 0.00 in0.0 mm 0.00 in0.0 mm 0.00 in0.0 mm
03:26 AM 62.0°F16.7°C 52.9°F11.6°C 72% - N16091.8 kmh N -- 29.87 in1011.5 mb 0.00 in0.0 mm 0.00 in0.0 mm 0.00 in0.0 mm
03:21 AM 62.2°F16.8°C 52.7°F11.5°C 71% - N16091.8 kmh N -- 29.87 in1011.5 mb 0.00 in0.0 mm 0.00 in0.0 mm 0.00 in0.0 mm
03:16 AM 62.2°F16.8°C 52.7°F11.5°C 71% - N16091.8 kmh N -- 29.87 in1011.5 mb 0.00 in0.0 mm 0.00 in0.0 mm 0.00 in0.0 mm
03:11 AM 62.4°F16.9°C 52.9°F11.6°C 71% - N16091.8 kmh N -- 29.86 in1011.2 mb 0.00 in0.0 mm 0.00 in0.0 mm 0.00 in0.0 mm
03:06 AM 62.4°F16.9°C 52.9°F11.6°C 71% - N16091.8 kmh N -- 29.86 in1011.2 mb 0.00 in0.0 mm 0.00 in0.0 mm 0.00 in0.0 mm
03:01 AM 62.7°F17.1°C 53.2°F11.8°C 71% - N16091.8 kmh N -- 29.86 in1011.2 mb 0.00 in0.0 mm 0.00 in0.0 mm 0.00 in0.0 mm
02:56 AM 62.7°F17.1°C 53.2°F11.8°C 71% - N16091.8 kmh N -- 29.86 in1011.2 mb 0.00 in0.0 mm 0.00 in0.0 mm 0.00 in0.0 mm
02:51 AM 62.7°F17.1°C 53.2°F11.8°C 71% - N16091.8 kmh N -- 29.86 in1011.2 mb 0.00 in0.0 mm 0.00 in0.0 mm 0.00 in0.0 mm
02:46 AM 62.7°F17.1°C 53.2°F11.8°C 71% - N16091.8 kmh N -- 29.86 in1011.2 mb 0.00 in0.0 mm 0.00 in0.0 mm 0.00 in0.0 mm
02:41 AM 62.9°F17.2°C 53.4°F11.9°C 70% - N16091.8 kmh N -- 29.86 in1011.2 mb 0.00 in0.0 mm 0.00 in0.0 mm 0.00 in0.0 mm
02:36 AM 62.9°F17.2°C 53.4°F11.9°C 71% - N16091.8 kmh N -- 29.86 in1011.2 mb 0.00 in0.0 mm 0.00 in0.0 mm 0.00 in0.0 mm
02:31 AM 63.1°F17.3°C 53.6°F12.0°C 71% - N16091.8 kmh N -- 29.86 in1011.2 mb 0.00 in0.0 mm 0.00 in0.0 mm 0.00 in0.0 mm
02:26 AM 63.1°F17.3°C 53.2°F11.8°C 70% - N16091.8 kmh N -- 29.86 in1011.2 mb 0.00 in0.0 mm 0.00 in0.0 mm 0.00 in0.0 mm
02:21 AM 63.1°F17.3°C 53.2°F11.8°C 70% - N16091.8 kmh N -- 29.87 in1011.5 mb 0.00 in0.0 mm 0.00 in0.0 mm 0.00 in0.0 mm
02:16 AM 63.1°F17.3°C 53.2°F11.8°C 70% - N16091.8 kmh N -- 29.86 in1011.2 mb 0.00 in0.0 mm 0.00 in0.0 mm 0.00 in0.0 mm
02:11 AM 63.3°F17.4°C 53.0°F11.7°C 70% - N16091.8 kmh N -- 29.87 in1011.5 mb 0.00 in0.0 mm 0.00 in0.0 mm 0.00 in0.0 mm
02:06 AM 63.3°F17.4°C 53.0°F11.7°C 69% - N16091.8 kmh N -- 29.87 in1011.5 mb 0.00 in0.0 mm 0.00 in0.0 mm 0.00 in0.0 mm
02:01 AM 63.3°F17.4°C 53.0°F11.7°C 69% - N16091.8 kmh N -- 29.87 in1011.5 mb 0.00 in0.0 mm 0.00 in0.0 mm 0.00 in0.0 mm
01:56 AM 63.3°F17.4°C 53.0°F11.7°C 69% - N16091.8 kmh N -- 29.87 in1011.5 mb 0.00 in0.0 mm 0.00 in0.0 mm 0.00 in0.0 mm
01:51 AM 63.6°F17.6°C 53.3°F11.8°C 69% - N16091.8 kmh N -- 29.87 in1011.5 mb 0.00 in0.0 mm 0.00 in0.0 mm 0.00 in0.0 mm
01:46 AM 63.6°F17.6°C 53.3°F11.8°C 69% - N16091.8 kmh N -- 29.87 in1011.5 mb 0.00 in0.0 mm 0.00 in0.0 mm 0.00 in0.0 mm
01:41 AM 64.0°F17.8°C 53.7°F12.1°C 69% - N16091.8 kmh N -- 29.88 in1011.9 mb 0.00 in0.0 mm 0.00 in0.0 mm 0.00 in0.0 mm
01:36 AM 64.2°F17.9°C 53.8°F12.1°C 69% - N16091.8 kmh N -- 29.87 in1011.5 mb 0.00 in0.0 mm 0.00 in0.0 mm 0.00 in0.0 mm
01:31 AM 64.2°F17.9°C 53.8°F12.1°C 69% - N16091.8 kmh N -- 29.87 in1011.5 mb 0.00 in0.0 mm 0.00 in0.0 mm 0.00 in0.0 mm
01:26 AM 64.5°F18.1°C 53.8°F12.1°C 68% - N16091.8 kmh N -- 29.87 in1011.5 mb 0.00 in0.0 mm 0.00 in0.0 mm 0.00 in0.0 mm
01:21 AM 64.5°F18.1°C 53.8°F12.1°C 68% - N16091.8 kmh N -- 29.87 in1011.5 mb 0.00 in0.0 mm 0.00 in0.0 mm 0.00 in0.0 mm
01:16 AM 64.7°F18.2°C 53.9°F12.2°C 68% - N16091.8 kmh N -- 29.88 in1011.9 mb 0.00 in0.0 mm 0.00 in0.0 mm 0.00 in0.0 mm
01:11 AM 65.1°F18.4°C 53.8°F12.1°C 67% - N16091.8 kmh N -- 29.88 in1011.9 mb 0.00 in0.0 mm 0.00 in0.0 mm 0.00 in0.0 mm
01:06 AM 65.3°F18.5°C 54.0°F12.2°C 67% - N16091.8 kmh N -- 29.88 in1011.9 mb 0.00 in0.0 mm 0.00 in0.0 mm 0.00 in0.0 mm
01:01 AM 65.4°F18.6°C 54.2°F12.3°C 67% - N16091.8 kmh N -- 29.88 in1011.9 mb 0.00 in0.0 mm 0.00 in0.0 mm 0.00 in0.0 mm
12:56 AM 65.8°F18.8°C 54.1°F12.3°C 66% - N16091.8 kmh N -- 29.88 in1011.9 mb 0.00 in0.0 mm 0.00 in0.0 mm 0.00 in0.0 mm
12:51 AM 66.0°F18.9°C 54.2°F12.3°C 66% - N16091.8 kmh N -- 29.88 in1011.9 mb 0.00 in0.0 mm 0.00 in0.0 mm 0.00 in0.0 mm
12:45 AM 66.3°F19.1°C 54.6°F12.6°C 66% - N16091.8 kmh N -- 29.87 in1011.5 mb 0.00 in0.0 mm 0.00 in0.0 mm 0.00 in0.0 mm
12:41 AM 66.7°F19.3°C 54.5°F12.5°C 65% - N16091.8 kmh N -- 29.88 in1011.9 mb 0.00 in0.0 mm 0.00 in0.0 mm 0.00 in0.0 mm
12:35 AM 66.9°F19.4°C 54.7°F12.6°C 65% - N16091.8 kmh N -- 29.88 in1011.9 mb 0.00 in0.0 mm 0.00 in0.0 mm 0.00 in0.0 mm
12:30 AM 67.1°F19.5°C 54.9°F12.7°C 65% - N16091.8 kmh N -- 29.88 in1011.9 mb 0.00 in0.0 mm 0.00 in0.0 mm 0.00 in0.0 mm
12:25 AM 67.2°F19.6°C 55.0°F12.8°C 65% - N16091.8 kmh N -- 29.88 in1011.9 mb 0.00 in0.0 mm 0.00 in0.0 mm 0.00 in0.0 mm
12:20 AM 67.2°F19.6°C 55.0°F12.8°C 65% - N16091.8 kmh N -- 29.88 in1011.9 mb 0.00 in0.0 mm 0.00 in0.0 mm 0.00 in0.0 mm
12:15 AM 67.4°F19.7°C 54.8°F12.7°C 64% - N16091.8 kmh N -- 29.88 in1011.9 mb 0.00 in0.0 mm 0.00 in0.0 mm 0.00 in0.0 mm
12:10 AM 67.6°F19.8°C 54.9°F12.7°C 64% - N16091.8 kmh N -- 29.88 in1011.9 mb 0.00 in0.0 mm 0.00 in0.0 mm 0.00 in0.0 mm
12:05 AM 67.6°F19.8°C 54.9°F12.7°C 64% - N16091.8 kmh N -- 29.87 in1011.5 mb 0.00 in0.0 mm 0.00 in0.0 mm 0.00 in0.0 mm
12:00 AM 67.6°F19.8°C 54.9°F12.7°C 64% - N16091.8 kmh N -- 29.88 in1011.9 mb 0.00 in0.0 mm 0.00 in0.0 mm 0.00 in0.0 mm